Time;durP1;ratioP1;P1;durP2;ratioP2;P2;SDS_P1;SDS_P2;PMS_P1;PMS_P2;Temp;Humidity;BMP_temperature;BMP_pressure;BME280_temperature;BME280_humidity;BME280_pressure;Samples;Min_cycle;Max_cycle;Signal;HPM_P1;HPM_P2
2023/08/21 00:00:07;;;;;;;5.73;3.73;;;;;;;19.24;100.00;101343.53;700947;28;911;-64
2023/08/21 00:00:27;;;;;;;6.72;3.83;;;;;;;19.22;100.00;101338.28;699049;28;1302;-65
2023/08/21 00:00:48;;;;;;;6.90;3.70;;;;;;;19.21;100.00;101341.81;700952;28;923;-65
2023/08/21 00:01:08;;;;;;;6.57;3.95;;;;;;;19.19;100.00;101342.78;699375;28;1379;-63
2023/08/21 00:01:29;;;;;;;6.70;4.37;;;;;;;19.19;100.00;101342.78;697541;28;2551;-63
2023/08/21 00:01:49;;;;;;;6.28;3.88;;;;;;;19.16;100.00;101342.88;700809;28;950;-65
2023/08/21 00:02:10;;;;;;;6.90;4.03;;;;;;;19.13;100.00;101341.19;700540;28;4493;-64
2023/08/21 00:02:30;;;;;;;6.20;4.03;;;;;;;19.13;100.00;101348.28;701177;28;2631;-65
2023/08/21 00:02:50;;;;;;;6.87;4.10;;;;;;;19.14;100.00;101344.72;700915;28;1424;-65
2023/08/21 00:03:11;;;;;;;7.87;4.30;;;;;;;19.14;100.00;101344.72;701618;28;812;-64
2023/08/21 00:03:31;;;;;;;7.07;4.07;;;;;;;19.13;100.00;101343.84;700669;28;2267;-64
2023/08/21 00:03:51;;;;;;;7.60;4.00;;;;;;;19.13;100.00;101342.97;701044;28;1113;-64
2023/08/21 00:04:12;;;;;;;7.50;4.22;;;;;;;19.12;100.00;101347.44;701973;28;1333;-66
2023/08/21 00:04:33;;;;;;;6.90;4.10;;;;;;;19.12;100.00;101343.88;700045;28;1831;-65
2023/08/21 00:04:54;;;;;;;7.90;4.05;;;;;;;19.10;100.00;101343.06;701549;28;4315;-63
2023/08/21 00:05:14;;;;;;;8.00;4.00;;;;;;;19.08;100.00;101343.13;702839;28;990;-64
2023/08/21 00:05:35;;;;;;;7.07;4.00;;;;;;;19.09;100.00;101346.63;701386;28;1771;-64
2023/08/21 00:05:55;;;;;;;6.47;3.90;;;;;;;19.07;100.00;101343.19;702050;28;1045;-64
2023/08/21 00:06:15;;;;;;;5.83;3.57;;;;;;;19.05;100.00;101346.72;701304;28;851;-62
2023/08/21 00:06:36;;;;;;;6.85;3.85;;;;;;;19.05;100.00;101341.44;699111;28;1728;-64
2023/08/21 00:06:56;;;;;;;6.60;3.90;;;;;;;19.04;100.00;101344.13;701175;28;878;-66
2023/08/21 00:07:17;;;;;;;7.40;3.78;;;;;;;19.03;100.00;101345.88;702378;28;1587;-65
2023/08/21 00:07:37;;;;;;;6.97;3.67;;;;;;;19.02;100.00;101346.81;701698;28;1720;-64
2023/08/21 00:07:57;;;;;;;6.10;3.50;;;;;;;19.02;100.00;101346.81;700505;28;4262;-65
2023/08/21 00:08:18;;;;;;;5.50;3.47;;;;;;;19.01;100.00;101345.09;702827;28;808;-65
2023/08/21 00:08:38;;;;;;;6.40;3.80;;;;;;;19.00;100.00;101340.69;699745;28;2343;-65
2023/08/21 00:09:00;;;;;;;6.95;3.97;;;;;;;19.01;100.00;101345.09;699851;28;1133;-63
2023/08/21 00:09:21;;;;;;;5.20;3.70;;;;;;;19.00;100.00;101343.34;699011;28;1232;-63
2023/08/21 00:09:41;;;;;;;6.57;3.60;;;;;;;19.01;100.00;101341.53;700093;28;1752;-64
2023/08/21 00:10:02;;;;;;;7.60;3.57;;;;;;;18.99;100.00;101346.03;700263;28;1352;-64
2023/08/21 00:10:22;;;;;;;6.40;3.63;;;;;;;18.98;100.00;101347.81;696240;28;962;-65
2023/08/21 00:10:43;;;;;;;5.28;3.65;;;;;;;18.99;100.00;101348.69;696683;28;1995;-66
2023/08/21 00:11:03;;;;;;;6.13;3.63;;;;;;;18.99;100.00;101340.75;696549;28;4317;-66
2023/08/21 00:11:23;;;;;;;5.97;3.80;;;;;;;19.00;100.00;101346.00;696756;28;863;-64
2023/08/21 00:11:46;;;;;;;5.85;3.78;;;;;;;19.00;100.00;101350.44;691069;28;2295;-64
2023/08/21 00:12:06;;;;;;;6.45;4.03;;;;;;;18.98;100.00;101352.25;693805;28;1249;-64
2023/08/21 00:12:27;;;;;;;5.82;3.55;;;;;;;18.98;100.00;101349.59;695186;28;927;-64
2023/08/21 00:12:47;;;;;;;5.63;3.70;;;;;;;18.95;100.00;101352.34;698033;28;1359;-63
2023/08/21 00:13:08;;;;;;;5.95;3.45;;;;;;;18.94;100.00;101354.13;699794;28;931;-64
2023/08/21 00:13:28;;;;;;;8.03;3.60;;;;;;;18.93;100.00;101349.72;699185;28;2008;-63
2023/08/21 00:13:49;;;;;;;8.52;3.70;;;;;;;18.93;100.00;101349.72;702525;28;1013;-63
2023/08/21 00:14:09;;;;;;;6.97;3.58;;;;;;;18.91;100.00;101354.19;700858;28;4621;-64
2023/08/21 00:14:30;;;;;;;6.10;3.60;;;;;;;18.92;100.00;101355.94;701075;28;1089;-64
2023/08/21 00:14:50;;;;;;;6.80;3.70;;;;;;;18.93;100.00;101352.38;701435;28;1017;-64
2023/08/21 00:15:11;;;;;;;6.40;3.60;;;;;;;18.95;100.00;101360.28;698996;28;762;-64
2023/08/21 00:15:31;;;;;;;5.70;3.60;;;;;;;18.95;100.00;101349.69;697890;28;2415;-64
2023/08/21 00:15:52;;;;;;;6.38;3.50;;;;;;;18.95;100.00;101353.19;699916;28;847;-63
2023/08/21 00:16:12;;;;;;;6.90;3.70;;;;;;;18.95;100.00;101354.97;702158;28;1260;-64
2023/08/21 00:16:33;;;;;;;5.60;3.40;;;;;;;18.95;100.00;101354.97;704321;27;1511;-65
2023/08/21 00:16:53;;;;;;;6.00;3.40;;;;;;;18.96;100.00;101352.28;704346;27;4360;-64
2023/08/21 00:17:13;;;;;;;5.70;3.53;;;;;;;18.93;100.00;101357.69;707687;27;1300;-64
2023/08/21 00:17:34;;;;;;;5.30;3.43;;;;;;;18.92;100.00;101353.28;706395;27;1713;-64
2023/08/21 00:17:54;;;;;;;5.75;3.58;;;;;;;18.90;100.00;101355.13;707127;27;1233;-64
2023/08/21 00:18:14;;;;;;;5.90;3.50;;;;;;;18.89;100.00;101353.38;707215;27;810;-64
2023/08/21 00:18:35;;;;;;;6.23;3.50;;;;;;;18.96;100.00;101352.28;700287;28;2282;-64
2023/08/21 00:18:56;;;;;;;6.65;3.50;;;;;;;19.01;100.00;101350.38;702668;28;1921;-63
2023/08/21 00:19:16;;;;;;;5.40;3.50;;;;;;;19.03;100.00;101353.84;702449;28;898;-66
2023/08/21 00:19:36;;;;;;;5.28;3.30;;;;;;;19.02;100.00;101352.13;700771;28;1078;-65
2023/08/21 00:19:57;;;;;;;6.70;3.40;;;;;;;19.02;100.00;101352.13;700353;28;4359;-65
2023/08/21 00:20:17;;;;;;;6.72;3.60;;;;;;;19.02;100.00;101351.25;701390;28;974;-65
2023/08/21 00:20:41;;;;;;;6.38;3.35;;;;;;;18.99;100.00;101354.84;702145;28;2767;-64
2023/08/21 00:21:02;;;;;;;6.13;3.40;;;;;;;18.96;100.00;101351.44;702394;28;828;-64
2023/08/21 00:21:22;;;;;;;6.80;3.50;;;;;;;18.95;100.00;101354.97;703094;28;1304;-65
2023/08/21 00:21:43;;;;;;;5.93;3.80;;;;;;;18.94;100.00;101351.47;701385;28;2304;-65
2023/08/21 00:22:03;;;;;;;5.65;3.78;;;;;;;18.93;100.00;101355.03;701894;28;1141;-64
2023/08/21 00:22:24;;;;;;;6.10;3.47;;;;;;;18.90;100.00;101352.47;702368;28;931;-63
2023/08/21 00:22:44;;;;;;;6.72;3.70;;;;;;;18.88;100.00;101354.28;701955;28;1707;-64
2023/08/21 00:23:04;;;;;;;6.87;3.70;;;;;;;18.86;100.00;101356.09;701282;28;4400;-64
2023/08/21 00:23:25;;;;;;;6.23;3.40;;;;;;;18.84;100.00;101347.31;701922;28;1120;-66
2023/08/21 00:23:46;;;;;;;6.70;3.55;;;;;;;18.83;100.00;101354.41;701919;28;1739;-63
2023/08/21 00:24:06;;;;;;;5.57;3.70;;;;;;;18.83;100.00;101349.09;701504;28;903;-64
2023/08/21 00:24:27;;;;;;;5.03;3.50;;;;;;;18.82;100.00;101354.44;701637;28;906;-65
2023/08/21 00:24:47;;;;;;;6.45;3.88;;;;;;;18.80;100.00;101353.59;701614;28;958;-65
2023/08/21 00:25:08;;;;;;;8.33;3.67;;;;;;;18.78;100.00;101352.78;703143;28;1064;-64
2023/08/21 00:25:28;;;;;;;8.02;3.70;;;;;;;18.75;100.00;101356.38;701551;28;1752;-65
2023/08/21 00:25:48;;;;;;;6.40;3.67;;;;;;;18.75;100.00;101352.84;702636;28;756;-65
2023/08/21 00:26:09;;;;;;;5.80;3.50;;;;;;;18.74;100.00;101357.28;702056;28;4319;-65
2023/08/21 00:26:29;;;;;;;5.80;3.77;;;;;;;18.74;100.00;101352.00;701557;28;1849;-65
2023/08/21 00:26:49;;;;;;;5.20;3.43;;;;;;;18.76;100.00;101354.59;700389;28;1065;-65
2023/08/21 00:27:10;;;;;;;5.93;3.60;;;;;;;18.76;100.00;101349.31;698408;28;1422;-64
2023/08/21 00:27:31;;;;;;;6.15;3.47;;;;;;;18.75;100.00;101351.09;694972;28;1114;-64
2023/08/21 00:27:51;;;;;;;6.17;3.47;;;;;;;18.74;100.00;101346.69;693360;28;963;-65
2023/08/21 00:28:15;;;;;;;5.97;3.58;;;;;;;18.75;100.00;101351.09;695596;28;860;-65
2023/08/21 00:28:35;;;;;;;7.15;3.60;;;;;;;18.76;100.00;101357.25;691442;28;2146;-68
2023/08/21 00:28:55;;;;;;;5.67;3.50;;;;;;;18.74;100.00;101356.44;695129;28;4529;-65
2023/08/21 00:29:16;;;;;;;5.40;3.60;;;;;;;18.74;100.00;101356.44;695329;28;1196;-65
2023/08/21 00:29:39;;;;;;;5.60;3.30;;;;;;;18.71;100.00;101360.88;697220;28;1743;-65
2023/08/21 00:30:00;;;;;;;5.55;3.55;;;;;;;18.70;100.00;101351.19;699210;28;868;-64
2023/08/21 00:30:21;;;;;;;6.25;3.60;;;;;;;18.70;100.00;101353.84;697343;28;1234;-65
2023/08/21 00:30:42;;;;;;;6.53;3.90;;;;;;;18.69;100.00;101356.53;699140;28;1072;-65
2023/08/21 00:31:03;;;;;;;6.38;3.83;;;;;;;18.65;100.00;101353.13;699165;28;1166;-65
2023/08/21 00:31:24;;;;;;;5.13;3.40;;;;;;;18.66;100.00;101354.88;696339;28;2037;-64
2023/08/21 00:31:44;;;;;;;6.10;3.30;;;;;;;18.66;100.00;101356.63;693089;28;2364;-65
2023/08/21 00:32:06;;;;;;;5.30;3.38;;;;;;;18.64;100.00;101353.19;693545;28;4338;-64
2023/08/21 00:32:26;;;;;;;5.63;3.33;;;;;;;18.64;100.00;101354.03;697415;28;1838;-65
2023/08/21 00:32:47;;;;;;;6.03;3.60;;;;;;;18.69;100.00;101353.91;693533;28;1524;-65
2023/08/21 00:33:07;;;;;;;6.00;3.63;;;;;;;18.70;100.00;101356.50;695461;28;920;-64
2023/08/21 00:33:29;;;;;;;5.28;3.45;;;;;;;18.71;100.00;101350.28;694021;28;2422;-66
2023/08/21 00:33:49;;;;;;;6.88;4.05;;;;;;;18.69;100.00;101349.47;695228;28;1411;-65
2023/08/21 00:34:12;;;;;;;6.47;3.78;;;;;;;18.68;100.00;101350.38;695902;28;1674;-64
2023/08/21 00:34:32;;;;;;;5.55;3.78;;;;;;;18.66;100.00;101344.28;694022;28;2294;-65
2023/08/21 00:34:53;;;;;;;5.40;3.43;;;;;;;18.63;100.00;101354.94;696835;28;4488;-64
2023/08/21 00:35:13;;;;;;;6.30;3.50;;;;;;;18.60;100.00;101352.38;695825;28;1346;-63
2023/08/21 00:35:33;;;;;;;5.68;3.65;;;;;;;18.60;100.00;101349.72;695012;28;1981;-65
2023/08/21 00:35:57;;;;;;;4.90;3.60;;;;;;;18.60;100.00;101355.03;704073;27;1340;-63
2023/08/21 00:36:19;;;;;;;5.15;3.50;;;;;;;18.55;100.00;101351.63;703314;28;1432;-65
2023/08/21 00:36:39;;;;;;;6.00;3.63;;;;;;;18.52;100.00;101349.06;699655;28;1242;-64
2023/08/21 00:37:00;;;;;;;6.07;3.50;;;;;;;18.52;100.00;101349.06;698855;28;824;-65
2023/08/21 00:37:20;;;;;;;6.70;3.60;;;;;;;18.49;100.00;101347.38;698973;28;1467;-64
2023/08/21 00:37:41;;;;;;;7.20;3.80;;;;;;;18.49;100.00;101349.16;697887;28;2539;-65
2023/08/21 00:38:02;;;;;;;5.75;3.80;;;;;;;18.51;100.00;101347.31;695110;28;4509;-64
2023/08/21 00:38:23;;;;;;;5.75;3.70;;;;;;;18.52;100.00;101349.06;695004;28;908;-65
2023/08/21 00:38:43;;;;;;;6.22;3.70;;;;;;;18.53;100.00;101348.16;694100;28;2104;-64
2023/08/21 00:39:04;;;;;;;6.63;3.60;;;;;;;18.52;100.00;101341.97;694101;28;959;-65
2023/08/21 00:39:24;;;;;;;6.77;3.77;;;;;;;18.50;100.00;101338.53;697349;28;864;-65
2023/08/21 00:39:44;;;;;;;6.23;3.70;;;;;;;18.49;100.00;101346.50;695866;28;5233;-65
2023/08/21 00:40:05;;;;;;;6.43;3.70;;;;;;;18.47;100.00;101343.03;697110;28;822;-64
2023/08/21 00:40:27;;;;;;;5.32;3.55;;;;;;;18.45;100.00;101345.72;697460;28;1334;-65
2023/08/21 00:40:47;;;;;;;4.97;3.63;;;;;;;18.45;100.00;101344.84;698137;28;2295;-65
2023/08/21 00:41:08;;;;;;;4.93;3.53;;;;;;;18.42;100.00;101347.59;698682;28;4335;-65
2023/08/21 00:41:28;;;;;;;5.70;3.50;;;;;;;18.37;100.00;101351.22;698412;28;2576;-66
2023/08/21 00:41:49;;;;;;;5.60;3.63;;;;;;;18.37;100.00;101348.59;697079;28;837;-66
2023/08/21 00:42:09;;;;;;;6.38;3.50;;;;;;;18.38;100.00;101342.34;700600;28;1108;-65
2023/08/21 00:42:29;;;;;;;7.97;3.70;;;;;;;18.37;100.00;101343.28;697725;28;1746;-65
2023/08/21 00:42:50;;;;;;;7.63;3.80;;;;;;;18.36;100.00;101346.84;700345;28;918;-64
2023/08/21 00:43:10;;;;;;;6.05;3.42;;;;;;;18.35;100.00;101339.78;700019;28;1057;-64
2023/08/21 00:43:30;;;;;;;6.37;3.43;;;;;;;18.36;100.00;101348.63;695157;28;1776;-64
2023/08/21 00:43:51;;;;;;;6.28;3.50;;;;;;;18.34;100.00;101338.06;697496;28;1324;-65
2023/08/21 00:44:12;;;;;;;5.63;3.55;;;;;;;18.33;100.00;101340.75;695581;28;6485;-64
2023/08/21 00:44:32;;;;;;;6.03;4.00;;;;;;;18.32;100.00;101350.47;695466;28;2435;-66
2023/08/21 00:44:52;;;;;;;6.60;3.60;;;;;;;18.28;100.00;101350.59;697493;28;722;-65
2023/08/21 00:45:13;;;;;;;5.68;3.70;;;;;;;18.26;100.00;101345.31;696746;28;796;-65
2023/08/21 00:45:34;;;;;;;5.78;3.67;;;;;;;18.27;100.00;101343.56;698080;28;1732;-64
2023/08/21 00:45:54;;;;;;;6.20;3.70;;;;;;;18.28;100.00;101343.53;700248;28;828;-65
2023/08/21 00:46:15;;;;;;;5.80;3.70;;;;;;;18.31;100.00;101343.44;702529;28;863;-65
2023/08/21 00:46:36;;;;;;;5.95;3.75;;;;;;;18.30;100.00;101348.78;701493;28;1862;-65
2023/08/21 00:46:56;;;;;;;5.55;3.63;;;;;;;18.29;100.00;101342.63;697601;28;4446;-64
2023/08/21 00:47:17;;;;;;;7.13;3.63;;;;;;;18.28;100.00;101343.53;698357;28;3606;-64
2023/08/21 00:47:37;;;;;;;5.53;3.60;;;;;;;18.29;100.00;101344.38;699020;28;1791;-65
2023/08/21 00:47:57;;;;;;;5.03;3.60;;;;;;;18.29;100.00;101344.38;699201;28;1358;-64
2023/08/21 00:48:19;;;;;;;5.65;3.72;;;;;;;18.29;100.00;101345.28;697692;28;1635;-64
2023/08/21 00:48:39;;;;;;;5.93;3.70;;;;;;;18.29;100.00;101345.28;696524;28;1503;-65
2023/08/21 00:49:00;;;;;;;5.20;3.40;;;;;;;18.29;100.00;101345.28;695802;28;983;-64
2023/08/21 00:49:21;;;;;;;6.45;3.50;;;;;;;18.26;100.00;101345.31;690622;28;924;-65
2023/08/21 00:49:42;;;;;;;6.18;3.75;;;;;;;18.25;100.00;101342.72;690808;28;1028;-65
2023/08/21 00:50:06;;;;;;;5.35;3.60;;;;;;;18.26;100.00;101347.97;693992;28;4425;-65
2023/08/21 00:50:27;;;;;;;6.20;3.80;;;;;;;18.24;100.00;101347.16;698951;28;1006;-65
2023/08/21 00:50:48;;;;;;;5.93;3.90;;;;;;;18.24;100.00;101348.94;697669;28;1469;-64
2023/08/21 00:51:08;;;;;;;5.93;3.95;;;;;;;18.24;100.00;101341.88;700644;28;887;-64
2023/08/21 00:51:32;;;;;;;6.20;3.80;;;;;;;18.25;100.00;101348.00;699364;28;982;-66
2023/08/21 00:51:53;;;;;;;6.18;3.90;;;;;;;18.25;100.00;101354.19;701231;28;939;-64
2023/08/21 00:52:14;;;;;;;6.20;3.83;;;;;;;18.23;100.00;101348.06;702875;28;927;-66
2023/08/21 00:52:36;;;;;;;7.40;4.03;;;;;;;18.23;100.00;101344.56;702275;28;2698;-65
2023/08/21 00:52:56;;;;;;;5.78;4.00;;;;;;;18.23;100.00;101347.19;701883;28;5290;-64
2023/08/21 00:53:18;;;;;;;6.83;3.83;;;;;;;18.24;100.00;101344.50;701868;28;927;-67
2023/08/21 00:53:38;;;;;;;6.57;3.90;;;;;;;18.27;100.00;101344.41;701093;28;1112;-65
2023/08/21 00:53:59;;;;;;;5.72;3.80;;;;;;;18.27;100.00;101347.06;702734;28;797;-65
2023/08/21 00:54:19;;;;;;;5.93;3.70;;;;;;;18.27;100.00;101346.22;704607;27;1284;-66
2023/08/21 00:54:41;;;;;;;6.15;3.78;;;;;;;18.24;100.00;101347.16;697874;28;1718;-64
2023/08/21 00:55:02;;;;;;;5.53;3.63;;;;;;;18.25;100.00;101348.00;695218;28;943;-65
2023/08/21 00:55:23;;;;;;;5.80;3.90;;;;;;;18.25;100.00;101340.06;694474;28;919;-67
2023/08/21 00:55:44;;;;;;;7.15;3.70;;;;;;;18.24;100.00;101346.28;689605;28;1864;-64
2023/08/21 00:56:05;;;;;;;6.10;3.53;;;;;;;18.20;100.00;101341.06;695672;28;5254;-66
2023/08/21 00:56:25;;;;;;;5.85;3.92;;;;;;;18.16;100.00;101339.41;698291;28;962;-66
2023/08/21 00:56:46;;;;;;;5.60;3.80;;;;;;;18.14;100.00;101341.22;696999;28;1747;-65
2023/08/21 00:57:10;;;;;;;5.43;3.78;;;;;;;18.11;100.00;101348.38;701267;28;1104;-64
2023/08/21 00:57:31;;;;;;;5.53;3.80;;;;;;;18.11;100.00;101346.63;700309;28;2596;-65
2023/08/21 00:57:52;;;;;;;6.00;3.63;;;;;;;18.11;100.00;101343.97;697005;28;1238;-64
2023/08/21 00:58:13;;;;;;;5.82;3.80;;;;;;;18.13;100.00;101343.91;695663;28;878;-66
2023/08/21 00:58:33;;;;;;;6.60;4.25;;;;;;;18.14;100.00;101345.66;691482;28;2000;-66
2023/08/21 00:58:54;;;;;;;7.40;4.07;;;;;;;18.13;100.00;101343.91;695383;28;4404;-65
2023/08/21 00:59:14;;;;;;;6.45;3.80;;;;;;;18.12;100.00;101343.03;697950;28;1101;-66
2023/08/21 00:59:35;;;;;;;5.90;3.80;;;;;;;18.12;100.00;101345.69;696435;28;1736;-65
2023/08/21 00:59:56;;;;;;;6.18;3.80;;;;;;;18.12;100.00;101343.03;702377;28;907;-64
2023/08/21 01:00:17;;;;;;;6.70;3.60;;;;;;;18.09;100.00;101342.25;700838;28;1283;-64
2023/08/21 01:00:38;;;;;;;6.93;3.60;;;;;;;18.07;100.00;101338.78;693843;28;1730;-65
2023/08/21 01:00:58;;;;;;;6.60;3.83;;;;;;;18.07;100.00;101341.41;694556;28;1074;-64
2023/08/21 01:01:24;;;;;;;6.18;3.63;;;;;;;18.06;100.00;101339.69;695897;28;892;-65
2023/08/21 01:01:45;;;;;;;6.13;3.65;;;;;;;18.04;100.00;101340.59;694396;28;2363;-64
2023/08/21 01:02:05;;;;;;;5.57;3.72;;;;;;;18.01;100.00;101335.38;695334;28;4469;-65
2023/08/21 01:02:26;;;;;;;6.87;3.77;;;;;;;18.02;100.00;101333.59;699288;28;867;-64
2023/08/21 01:02:46;;;;;;;6.78;3.72;;;;;;;18.01;100.00;101330.09;701996;28;1716;-65
2023/08/21 01:03:06;;;;;;;5.73;3.80;;;;;;;18.02;100.00;101345.03;698932;28;1331;-64
2023/08/21 01:03:27;;;;;;;6.40;3.90;;;;;;;18.03;100.00;101338.00;699257;28;979;-64
2023/08/21 01:03:48;;;;;;;5.97;3.97;;;;;;;18.02;100.00;101334.47;699550;28;1834;-64
2023/08/21 01:04:09;;;;;;;6.18;3.90;;;;;;;18.02;100.00;101336.25;698448;28;886;-65
2023/08/21 01:04:30;;;;;;;6.15;3.80;;;;;;;18.02;100.00;101330.97;698265;28;1377;-66
2023/08/21 01:04:52;;;;;;;6.38;4.05;;;;;;;18.02;100.00;101336.25;698239;28;4370;-65
2023/08/21 01:05:19;;;;;;;5.75;3.75;;;;;;;18.04;100.00;101334.41;701221;28;1324;-66
2023/08/21 01:05:39;;;;;;;6.07;3.70;;;;;;;18.05;100.00;101336.16;699940;28;1850;-65
2023/08/21 01:06:00;;;;;;;7.70;4.15;;;;;;;18.06;100.00;101337.91;697232;28;1178;-65
2023/08/21 01:06:20;;;;;;;6.37;3.90;;;;;;;18.06;100.00;101334.41;698251;28;880;-64
2023/08/21 01:06:41;;;;;;;6.82;3.80;;;;;;;18.05;100.00;101336.16;697871;28;2348;-64
2023/08/21 01:07:03;;;;;;;6.73;3.97;;;;;;;18.05;100.00;101338.81;699650;28;876;-66
2023/08/21 01:07:23;;;;;;;6.57;3.92;;;;;;;18.03;100.00;101338.84;695335;28;3258;-64
2023/08/21 01:07:59;;;;;;;6.75;3.78;;;;;;;18.04;100.00;101340.59;692243;28;2613;-64
2023/08/21 01:08:30;;;;;;;6.03;3.50;;;;;;;18.01;100.00;101345.97;699364;28;6409;-65
2023/08/21 01:09:00;;;;;;;5.25;3.75;;;;;;;18.01;100.00;101342.44;700562;28;920;-64
2023/08/21 01:09:33;;;;;;;6.82;3.60;;;;;;;17.99;100.00;101341.63;703288;27;1279;-64
2023/08/21 01:10:20;;;;;;;7.45;3.83;;;;;;;17.96;100.00;101345.22;702685;27;1361;-66
2023/08/21 01:10:54;;;;;;;5.63;3.95;;;;;;;17.92;100.00;101340.91;700666;28;1716;-64
2023/08/21 01:11:21;;;;;;;7.28;3.67;;;;;;;17.92;100.00;101343.53;701569;28;4763;-64
2023/08/21 01:11:54;;;;;;;7.13;3.90;;;;;;;17.96;100.00;101337.28;701924;28;1719;-64
2023/08/21 01:12:36;;;;;;;6.13;3.90;;;;;;;17.98;100.00;101334.59;702372;28;986;-65
2023/08/21 01:13:09;;;;;;;7.28;3.80;;;;;;;18.00;100.00;101343.38;702830;28;1441;-65
2023/08/21 01:13:51;;;;;;;6.28;3.72;;;;;;;17.98;100.00;101339.88;702859;28;816;-66
2023/08/21 01:14:39;;;;;;;7.07;4.00;;;;;;;17.97;100.00;101338.13;702240;28;5812;-65
2023/08/21 01:15:03;;;;;;;5.57;3.60;;;;;;;17.95;100.00;101334.66;701095;28;912;-64
2023/08/21 01:15:24;;;;;;;5.78;3.80;;;;;;;17.95;100.00;101337.31;700933;28;832;-66
2023/08/21 01:15:46;;;;;;;7.05;4.05;;;;;;;17.95;100.00;101340.81;699884;28;1453;-64
2023/08/21 01:16:08;;;;;;;5.88;3.80;;;;;;;17.94;100.00;101339.06;698480;28;1784;-64
2023/08/21 01:16:29;;;;;;;6.00;3.70;;;;;;;17.96;100.00;101341.72;700035;28;1998;-66
2023/08/21 01:16:55;;;;;;;4.70;3.53;;;;;;;17.97;100.00;101336.38;698693;28;1849;-65
2023/08/21 01:17:17;;;;;;;6.60;4.22;;;;;;;17.95;100.00;101334.66;698264;28;6258;-68
2023/08/21 01:17:39;;;;;;;5.70;3.78;;;;;;;17.93;100.00;101340.00;695587;28;2088;-65
2023/08/21 01:18:00;;;;;;;7.03;3.97;;;;;;;17.93;100.00;101336.47;697880;28;1246;-64
2023/08/21 01:18:22;;;;;;;5.90;4.00;;;;;;;17.87;100.00;101337.47;696346;28;1283;-65
2023/08/21 01:18:45;;;;;;;6.80;4.03;;;;;;;17.86;100.00;101341.88;692727;28;2467;-65
2023/08/21 01:19:14;;;;;;;5.65;3.63;;;;;;;17.84;100.00;101334.91;693117;28;913;-65
2023/08/21 01:19:44;;;;;;;5.72;3.78;;;;;;;17.85;100.00;101340.16;693183;28;2519;-64
2023/08/21 01:20:08;;;;;;;7.82;4.13;;;;;;;17.86;100.00;101338.34;700586;28;4454;-64
2023/08/21 01:20:29;;;;;;;6.78;4.00;;;;;;;17.86;100.00;101343.66;703868;27;1037;-65
2023/08/21 01:20:51;;;;;;;7.05;4.40;;;;;;;17.85;100.00;101340.16;702059;27;2709;-64
2023/08/21 01:21:12;;;;;;;6.30;4.40;;;;;;;17.85;100.00;101337.50;705041;27;942;-65
2023/08/21 01:21:32;;;;;;;5.95;4.00;;;;;;;17.85;100.00;101340.16;703344;27;2285;-65
2023/08/21 01:21:53;;;;;;;5.53;3.90;;;;;;;17.85;100.00;101342.78;700747;28;1180;-65
2023/08/21 01:22:13;;;;;;;5.40;3.83;;;;;;;17.84;100.00;101342.84;697473;28;1244;-65
2023/08/21 01:22:39;;;;;;;5.40;3.60;;;;;;;17.81;100.00;101348.19;692228;28;1819;-65
2023/08/21 01:23:05;;;;;;;6.28;3.80;;;;;;;17.81;100.00;101338.47;695410;28;4370;-66
2023/08/21 01:23:36;;;;;;;5.55;3.53;;;;;;;17.79;100.00;101331.47;695786;28;1010;-68
2023/08/21 01:23:56;;;;;;;6.50;4.10;;;;;;;17.78;100.00;101343.00;697758;28;990;-65
2023/08/21 01:24:19;;;;;;;7.25;3.97;;;;;;;17.77;100.00;101346.53;699039;28;2113;-64
2023/08/21 01:24:42;;;;;;;6.70;4.25;;;;;;;17.76;100.00;101344.78;698074;28;1751;-65
2023/08/21 01:25:07;;;;;;;6.55;4.00;;;;;;;17.75;100.00;101348.34;699650;28;1069;-64
2023/08/21 01:25:28;;;;;;;6.47;4.03;;;;;;;17.73;100.00;101345.72;700607;28;948;-65
2023/08/21 01:25:49;;;;;;;6.85;4.05;;;;;;;17.72;100.00;101348.41;700037;28;1081;-64
2023/08/21 01:26:09;;;;;;;7.00;3.80;;;;;;;17.71;100.00;101347.56;701877;28;4501;-65
2023/08/21 01:26:30;;;;;;;7.10;3.97;;;;;;;17.69;100.00;101346.69;703801;28;991;-65
2023/08/21 01:26:53;;;;;;;7.63;4.20;;;;;;;17.68;100.00;101343.19;702418;28;1723;-64
2023/08/21 01:27:15;;;;;;;6.97;4.13;;;;;;;17.66;100.00;101345.00;702494;28;789;-65
2023/08/21 01:27:36;;;;;;;5.75;3.90;;;;;;;17.68;100.00;101348.50;701759;28;2296;-64
2023/08/21 01:27:57;;;;;;;6.65;4.15;;;;;;;17.66;100.00;101341.50;702216;28;1482;-64
2023/08/21 01:28:17;;;;;;;5.30;4.07;;;;;;;17.66;100.00;101346.78;701391;28;990;-65
2023/08/21 01:28:38;;;;;;;5.53;3.97;;;;;;;17.66;100.00;101345.00;700422;28;1863;-65
2023/08/21 01:28:58;;;;;;;6.55;4.03;;;;;;;17.63;100.00;101345.06;702284;28;4243;-66
2023/08/21 01:29:22;;;;;;;7.57;4.00;;;;;;;17.64;100.00;101351.22;701419;28;931;-66
2023/08/21 01:29:43;;;;;;;6.60;4.03;;;;;;;17.62;100.00;101348.63;701791;28;2455;-65
2023/08/21 01:30:07;;;;;;;6.97;4.25;;;;;;;17.63;100.00;101350.38;702773;28;959;-66
2023/08/21 01:30:32;;;;;;;6.97;4.18;;;;;;;17.62;100.00;101350.41;701346;28;1733;-66
2023/08/21 01:31:01;;;;;;;6.85;4.10;;;;;;;17.59;100.00;101348.69;698560;28;951;-65
2023/08/21 01:31:31;;;;;;;6.50;4.03;;;;;;;17.60;100.00;101354.84;698436;28;785;-65
2023/08/21 01:32:07;;;;;;;6.03;4.05;;;;;;;17.58;100.00;101357.53;701961;28;1927;-64
2023/08/21 01:32:39;;;;;;;5.68;4.05;;;;;;;17.58;100.00;101346.94;702175;28;7508;-64
2023/08/21 01:33:06;;;;;;;5.70;4.03;;;;;;;17.62;100.00;101353.91;703048;28;951;-64
2023/08/21 01:33:30;;;;;;;5.80;4.22;;;;;;;17.63;100.00;101355.66;702719;28;1018;-64
2023/08/21 01:33:56;;;;;;;6.85;4.18;;;;;;;17.63;100.00;101354.78;698798;28;1580;-64
2023/08/21 01:34:17;;;;;;;6.68;4.28;;;;;;;17.60;100.00;101355.72;701517;28;1042;-64
2023/08/21 01:34:39;;;;;;;6.30;4.20;;;;;;;17.59;100.00;101353.97;700266;28;2275;-63
2023/08/21 01:35:00;;;;;;;7.68;4.10;;;;;;;17.56;100.00;101359.34;701581;28;4329;-64
2023/08/21 01:35:20;;;;;;;5.88;4.10;;;;;;;17.54;100.00;101350.56;697740;28;1264;-64
2023/08/21 01:35:42;;;;;;;6.93;4.20;;;;;;;17.57;100.00;101357.56;696308;28;2789;-64
2023/08/21 01:36:04;;;;;;;6.88;4.05;;;;;;;17.55;100.00;101354.97;696593;28;1239;-64
2023/08/21 01:36:26;;;;;;;6.30;4.05;;;;;;;17.53;100.00;101348.84;695183;28;958;-64
2023/08/21 01:36:47;;;;;;;6.90;4.20;;;;;;;17.52;100.00;101352.41;695580;28;1714;-63
2023/08/21 01:37:09;;;;;;;6.63;4.10;;;;;;;17.51;100.00;101355.94;696488;28;817;-63
2023/08/21 01:37:30;;;;;;;6.45;4.18;;;;;;;17.50;100.00;101356.81;697502;28;1214;-64
2023/08/21 01:37:51;;;;;;;6.50;4.20;;;;;;;17.47;100.00;101347.22;697402;28;2255;-63
2023/08/21 01:38:12;;;;;;;6.03;4.10;;;;;;;17.47;100.00;101354.25;698032;28;4474;-64
2023/08/21 01:38:33;;;;;;;6.25;4.00;;;;;;;17.46;100.00;101349.88;695974;28;1823;-66
2023/08/21 01:38:54;;;;;;;6.43;4.20;;;;;;;17.45;100.00;101351.66;700045;28;1905;-64
2023/08/21 01:39:14;;;;;;;5.75;3.88;;;;;;;17.48;100.00;101345.44;701200;28;792;-65
2023/08/21 01:39:37;;;;;;;5.63;3.80;;;;;;;17.50;100.00;101349.78;699390;28;5448;-65
2023/08/21 01:39:58;;;;;;;5.72;4.10;;;;;;;17.51;100.00;101345.34;702432;28;1247;-65
2023/08/21 01:40:23;;;;;;;6.10;4.10;;;;;;;17.52;100.00;101349.75;701115;28;1804;-64
2023/08/21 01:40:43;;;;;;;7.07;4.00;;;;;;;17.53;100.00;101343.56;695517;28;1525;-65
2023/08/21 01:41:05;;;;;;;7.60;4.18;;;;;;;17.50;100.00;101344.50;698156;28;4424;-65
2023/08/21 01:41:27;;;;;;;7.10;4.10;;;;;;;17.52;100.00;101349.75;696530;28;2070;-64
2023/08/21 01:41:48;;;;;;;5.65;3.80;;;;;;;17.52;100.00;101349.75;695707;28;1983;-64
2023/08/21 01:42:10;;;;;;;6.45;4.03;;;;;;;17.53;100.00;101354.13;698295;28;919;-65
2023/08/21 01:42:33;;;;;;;7.05;4.10;;;;;;;17.55;100.00;101351.47;700566;28;840;-64
2023/08/21 01:42:54;;;;;;;8.40;3.80;;;;;;;17.53;100.00;101354.13;701008;28;958;-64
2023/08/21 01:43:14;;;;;;;5.97;3.80;;;;;;;17.53;100.00;101351.50;699877;28;4056;-66
2023/08/21 01:43:35;;;;;;;6.45;3.90;;;;;;;17.55;100.00;101354.09;696578;28;2462;-65
2023/08/21 01:43:56;;;;;;;7.13;4.10;;;;;;;17.52;100.00;101355.03;699275;28;4464;-65